sensor_id;sensor_type;location;lat;lon;timestamp;P1;durP1;ratioP1;P2;durP2;ratioP2
35188;SDS011;21762;54.480;18.556;2023-11-19T00:00:27;52.03;;;28.10;;
35188;SDS011;21762;54.480;18.556;2023-11-19T00:02:55;48.00;;;26.27;;
35188;SDS011;21762;54.480;18.556;2023-11-19T00:05:25;56.40;;;29.08;;
35188;SDS011;21762;54.480;18.556;2023-11-19T00:07:54;58.05;;;29.50;;
35188;SDS011;21762;54.480;18.556;2023-11-19T00:10:23;52.83;;;27.95;;
35188;SDS011;21762;54.480;18.556;2023-11-19T00:12:53;52.42;;;28.85;;
35188;SDS011;21762;54.480;18.556;2023-11-19T00:15:31;53.45;;;28.70;;
35188;SDS011;21762;54.480;18.556;2023-11-19T00:18:13;51.17;;;29.48;;
35188;SDS011;21762;54.480;18.556;2023-11-19T00:20:55;54.60;;;29.77;;
35188;SDS011;21762;54.480;18.556;2023-11-19T00:23:29;57.33;;;30.10;;
35188;SDS011;21762;54.480;18.556;2023-11-19T00:26:00;50.45;;;28.30;;
35188;SDS011;21762;54.480;18.556;2023-11-19T00:28:29;53.25;;;29.38;;
35188;SDS011;21762;54.480;18.556;2023-11-19T00:30:57;44.75;;;26.90;;
35188;SDS011;21762;54.480;18.556;2023-11-19T00:33:26;48.97;;;29.42;;
35188;SDS011;21762;54.480;18.556;2023-11-19T00:35:56;48.10;;;27.25;;
35188;SDS011;21762;54.480;18.556;2023-11-19T00:38:25;45.10;;;27.67;;
35188;SDS011;21762;54.480;18.556;2023-11-19T00:40:53;54.60;;;28.00;;
35188;SDS011;21762;54.480;18.556;2023-11-19T00:43:22;46.30;;;27.52;;
35188;SDS011;21762;54.480;18.556;2023-11-19T00:45:51;50.72;;;27.30;;
35188;SDS011;21762;54.480;18.556;2023-11-19T00:48:20;50.40;;;27.88;;
35188;SDS011;21762;54.480;18.556;2023-11-19T00:50:48;45.45;;;26.23;;
35188;SDS011;21762;54.480;18.556;2023-11-19T00:53:19;44.67;;;26.48;;
35188;SDS011;21762;54.480;18.556;2023-11-19T00:55:47;50.17;;;27.15;;
35188;SDS011;21762;54.480;18.556;2023-11-19T00:58:16;50.35;;;26.95;;
35188;SDS011;21762;54.480;18.556;2023-11-19T01:00:45;43.97;;;26.35;;
35188;SDS011;21762;54.480;18.556;2023-11-19T01:03:14;49.70;;;29.75;;
35188;SDS011;21762;54.480;18.556;2023-11-19T01:05:43;48.05;;;27.13;;
35188;SDS011;21762;54.480;18.556;2023-11-19T01:08:13;47.15;;;26.98;;
35188;SDS011;21762;54.480;18.556;2023-11-19T01:10:44;48.65;;;27.27;;
35188;SDS011;21762;54.480;18.556;2023-11-19T01:13:13;51.55;;;28.00;;
35188;SDS011;21762;54.480;18.556;2023-11-19T01:15:41;51.67;;;27.95;;
35188;SDS011;21762;54.480;18.556;2023-11-19T01:18:10;53.80;;;28.02;;
35188;SDS011;21762;54.480;18.556;2023-11-19T01:20:39;48.25;;;26.15;;
35188;SDS011;21762;54.480;18.556;2023-11-19T01:23:08;49.33;;;28.15;;
35188;SDS011;21762;54.480;18.556;2023-11-19T01:25:37;49.67;;;26.08;;
35188;SDS011;21762;54.480;18.556;2023-11-19T01:28:07;45.38;;;26.30;;
35188;SDS011;21762;54.480;18.556;2023-11-19T01:30:36;48.83;;;28.17;;
35188;SDS011;21762;54.480;18.556;2023-11-19T01:33:04;52.33;;;27.58;;
35188;SDS011;21762;54.480;18.556;2023-11-19T01:35:34;46.65;;;26.85;;
35188;SDS011;21762;54.480;18.556;2023-11-19T01:38:03;45.35;;;26.48;;
35188;SDS011;21762;54.480;18.556;2023-11-19T01:40:31;47.70;;;27.38;;
35188;SDS011;21762;54.480;18.556;2023-11-19T01:43:00;45.20;;;25.50;;
35188;SDS011;21762;54.480;18.556;2023-11-19T01:45:30;46.97;;;27.33;;
35188;SDS011;21762;54.480;18.556;2023-11-19T01:48:00;47.97;;;26.38;;
35188;SDS011;21762;54.480;18.556;2023-11-19T01:50:31;48.42;;;26.73;;
35188;SDS011;21762;54.480;18.556;2023-11-19T01:53:00;47.28;;;27.23;;
35188;SDS011;21762;54.480;18.556;2023-11-19T01:55:29;46.53;;;27.65;;
35188;SDS011;21762;54.480;18.556;2023-11-19T01:57:59;45.67;;;26.50;;
35188;SDS011;21762;54.480;18.556;2023-11-19T02:00:28;49.38;;;27.23;;
35188;SDS011;21762;54.480;18.556;2023-11-19T02:02:58;55.58;;;25.75;;
35188;SDS011;21762;54.480;18.556;2023-11-19T02:05:27;47.67;;;26.08;;
35188;SDS011;21762;54.480;18.556;2023-11-19T02:07:56;47.17;;;25.73;;
35188;SDS011;21762;54.480;18.556;2023-11-19T02:10:24;48.58;;;27.00;;
35188;SDS011;21762;54.480;18.556;2023-11-19T02:12:53;46.45;;;26.02;;
35188;SDS011;21762;54.480;18.556;2023-11-19T02:15:31;48.28;;;26.60;;
35188;SDS011;21762;54.480;18.556;2023-11-19T02:18:20;50.17;;;27.95;;
35188;SDS011;21762;54.480;18.556;2023-11-19T02:20:50;54.28;;;26.10;;
35188;SDS011;21762;54.480;18.556;2023-11-19T02:23:19;45.30;;;26.05;;
35188;SDS011;21762;54.480;18.556;2023-11-19T02:25:52;45.88;;;25.58;;
35188;SDS011;21762;54.480;18.556;2023-11-19T02:28:30;44.55;;;24.60;;
35188;SDS011;21762;54.480;18.556;2023-11-19T02:30:59;41.13;;;24.70;;
35188;SDS011;21762;54.480;18.556;2023-11-19T02:33:28;43.25;;;23.60;;
35188;SDS011;21762;54.480;18.556;2023-11-19T02:35:57;44.47;;;22.45;;
35188;SDS011;21762;54.480;18.556;2023-11-19T02:38:26;35.85;;;20.83;;
35188;SDS011;21762;54.480;18.556;2023-11-19T02:40:54;37.70;;;21.58;;
35188;SDS011;21762;54.480;18.556;2023-11-19T02:43:23;37.40;;;21.38;;
35188;SDS011;21762;54.480;18.556;2023-11-19T02:45:53;34.10;;;20.55;;
35188;SDS011;21762;54.480;18.556;2023-11-19T02:48:22;33.05;;;19.85;;
35188;SDS011;21762;54.480;18.556;2023-11-19T02:50:51;34.95;;;19.20;;
35188;SDS011;21762;54.480;18.556;2023-11-19T02:53:19;31.48;;;18.23;;
35188;SDS011;21762;54.480;18.556;2023-11-19T02:55:50;30.55;;;17.55;;
35188;SDS011;21762;54.480;18.556;2023-11-19T02:58:18;30.58;;;17.70;;
35188;SDS011;21762;54.480;18.556;2023-11-19T03:00:53;31.40;;;17.50;;
35188;SDS011;21762;54.480;18.556;2023-11-19T03:03:24;26.80;;;15.93;;
35188;SDS011;21762;54.480;18.556;2023-11-19T03:05:57;25.83;;;15.93;;
35188;SDS011;21762;54.480;18.556;2023-11-19T03:08:26;26.77;;;16.38;;
35188;SDS011;21762;54.480;18.556;2023-11-19T03:10:54;27.90;;;16.10;;
35188;SDS011;21762;54.480;18.556;2023-11-19T03:13:23;25.63;;;15.32;;
35188;SDS011;21762;54.480;18.556;2023-11-19T03:15:53;29.13;;;15.80;;
35188;SDS011;21762;54.480;18.556;2023-11-19T03:18:22;26.25;;;16.02;;
35188;SDS011;21762;54.480;18.556;2023-11-19T03:20:50;29.30;;;16.02;;
35188;SDS011;21762;54.480;18.556;2023-11-19T03:23:19;29.58;;;15.88;;
35188;SDS011;21762;54.480;18.556;2023-11-19T03:25:48;25.55;;;16.02;;
35188;SDS011;21762;54.480;18.556;2023-11-19T03:28:16;30.08;;;17.05;;
35188;SDS011;21762;54.480;18.556;2023-11-19T03:30:45;28.20;;;15.55;;
35188;SDS011;21762;54.480;18.556;2023-11-19T03:33:15;25.45;;;16.35;;
35188;SDS011;21762;54.480;18.556;2023-11-19T03:35:44;26.42;;;16.73;;
35188;SDS011;21762;54.480;18.556;2023-11-19T03:38:13;29.13;;;17.17;;
35188;SDS011;21762;54.480;18.556;2023-11-19T03:40:41;28.83;;;16.80;;
35188;SDS011;21762;54.480;18.556;2023-11-19T03:43:10;30.15;;;16.92;;
35188;SDS011;21762;54.480;18.556;2023-11-19T03:45:39;33.13;;;18.25;;
35188;SDS011;21762;54.480;18.556;2023-11-19T03:48:08;34.83;;;19.40;;
35188;SDS011;21762;54.480;18.556;2023-11-19T03:50:38;35.25;;;19.95;;
35188;SDS011;21762;54.480;18.556;2023-11-19T03:53:07;33.08;;;19.77;;
35188;SDS011;21762;54.480;18.556;2023-11-19T03:55:35;31.95;;;18.70;;
35188;SDS011;21762;54.480;18.556;2023-11-19T03:58:04;33.65;;;21.00;;
35188;SDS011;21762;54.480;18.556;2023-11-19T04:00:33;35.75;;;19.83;;
35188;SDS011;21762;54.480;18.556;2023-11-19T04:03:01;34.25;;;20.25;;
35188;SDS011;21762;54.480;18.556;2023-11-19T04:05:31;33.65;;;19.52;;
35188;SDS011;21762;54.480;18.556;2023-11-19T04:08:01;33.55;;;20.00;;
35188;SDS011;21762;54.480;18.556;2023-11-19T04:10:30;34.83;;;20.30;;
35188;SDS011;21762;54.480;18.556;2023-11-19T04:12:59;33.67;;;19.65;;
35188;SDS011;21762;54.480;18.556;2023-11-19T04:15:28;35.78;;;20.52;;
35188;SDS011;21762;54.480;18.556;2023-11-19T04:17:58;31.35;;;19.15;;
35188;SDS011;21762;54.480;18.556;2023-11-19T04:20:27;37.28;;;21.73;;
35188;SDS011;21762;54.480;18.556;2023-11-19T04:22:56;36.30;;;22.05;;
35188;SDS011;21762;54.480;18.556;2023-11-19T04:25:26;36.05;;;20.70;;
35188;SDS011;21762;54.480;18.556;2023-11-19T04:27:55;38.33;;;22.23;;
35188;SDS011;21762;54.480;18.556;2023-11-19T04:30:24;38.35;;;21.58;;
35188;SDS011;21762;54.480;18.556;2023-11-19T04:32:53;40.47;;;21.38;;
35188;SDS011;21762;54.480;18.556;2023-11-19T04:35:21;37.92;;;21.60;;
35188;SDS011;21762;54.480;18.556;2023-11-19T04:37:50;36.55;;;21.70;;
35188;SDS011;21762;54.480;18.556;2023-11-19T04:40:19;38.80;;;21.17;;
35188;SDS011;21762;54.480;18.556;2023-11-19T04:42:51;37.80;;;20.98;;
35188;SDS011;21762;54.480;18.556;2023-11-19T04:45:19;33.63;;;21.10;;
35188;SDS011;21762;54.480;18.556;2023-11-19T04:47:48;35.95;;;20.50;;
35188;SDS011;21762;54.480;18.556;2023-11-19T04:50:17;37.85;;;20.95;;
35188;SDS011;21762;54.480;18.556;2023-11-19T04:52:45;37.53;;;20.00;;
35188;SDS011;21762;54.480;18.556;2023-11-19T04:55:14;34.40;;;20.38;;
35188;SDS011;21762;54.480;18.556;2023-11-19T04:57:43;34.65;;;21.75;;
35188;SDS011;21762;54.480;18.556;2023-11-19T05:00:14;34.67;;;20.73;;
35188;SDS011;21762;54.480;18.556;2023-11-19T05:02:43;34.93;;;20.00;;
35188;SDS011;21762;54.480;18.556;2023-11-19T05:05:11;37.58;;;19.73;;
35188;SDS011;21762;54.480;18.556;2023-11-19T05:07:41;34.30;;;20.30;;
35188;SDS011;21762;54.480;18.556;2023-11-19T05:10:09;31.67;;;18.33;;
35188;SDS011;21762;54.480;18.556;2023-11-19T05:12:38;33.40;;;19.15;;
35188;SDS011;21762;54.480;18.556;2023-11-19T05:15:08;30.98;;;17.90;;
35188;SDS011;21762;54.480;18.556;2023-11-19T05:17:40;31.10;;;19.33;;
35188;SDS011;21762;54.480;18.556;2023-11-19T05:20:09;37.13;;;19.85;;
35188;SDS011;21762;54.480;18.556;2023-11-19T05:22:40;32.97;;;19.17;;
35188;SDS011;21762;54.480;18.556;2023-11-19T05:25:09;32.78;;;18.20;;
35188;SDS011;21762;54.480;18.556;2023-11-19T05:27:38;31.85;;;19.27;;
35188;SDS011;21762;54.480;18.556;2023-11-19T05:30:07;35.72;;;20.13;;
35188;SDS011;21762;54.480;18.556;2023-11-19T05:32:37;34.80;;;18.95;;
35188;SDS011;21762;54.480;18.556;2023-11-19T05:35:08;30.38;;;18.02;;
35188;SDS011;21762;54.480;18.556;2023-11-19T05:37:37;32.67;;;19.80;;
35188;SDS011;21762;54.480;18.556;2023-11-19T05:40:06;31.45;;;19.38;;
35188;SDS011;21762;54.480;18.556;2023-11-19T05:42:41;36.17;;;20.08;;
35188;SDS011;21762;54.480;18.556;2023-11-19T05:45:11;35.15;;;20.33;;
35188;SDS011;21762;54.480;18.556;2023-11-19T05:47:40;34.60;;;20.42;;
35188;SDS011;21762;54.480;18.556;2023-11-19T05:50:11;37.17;;;20.35;;
35188;SDS011;21762;54.480;18.556;2023-11-19T05:52:39;35.15;;;19.45;;
35188;SDS011;21762;54.480;18.556;2023-11-19T05:55:08;31.73;;;20.27;;
35188;SDS011;21762;54.480;18.556;2023-11-19T05:57:37;36.20;;;20.38;;
35188;SDS011;21762;54.480;18.556;2023-11-19T06:00:09;36.92;;;21.95;;
35188;SDS011;21762;54.480;18.556;2023-11-19T06:02:40;36.88;;;21.42;;
35188;SDS011;21762;54.480;18.556;2023-11-19T06:05:08;38.63;;;21.45;;
35188;SDS011;21762;54.480;18.556;2023-11-19T06:07:38;35.03;;;20.85;;
35188;SDS011;21762;54.480;18.556;2023-11-19T06:10:08;35.13;;;20.90;;
35188;SDS011;21762;54.480;18.556;2023-11-19T06:12:37;38.55;;;21.50;;
35188;SDS011;21762;54.480;18.556;2023-11-19T06:15:08;35.22;;;21.58;;
35188;SDS011;21762;54.480;18.556;2023-11-19T06:17:38;37.03;;;20.60;;
35188;SDS011;21762;54.480;18.556;2023-11-19T06:20:07;37.20;;;21.58;;
35188;SDS011;21762;54.480;18.556;2023-11-19T06:25:10;36.67;;;20.65;;
35188;SDS011;21762;54.480;18.556;2023-11-19T06:27:41;39.00;;;22.10;;
35188;SDS011;21762;54.480;18.556;2023-11-19T06:30:10;36.72;;;21.98;;
35188;SDS011;21762;54.480;18.556;2023-11-19T06:32:40;41.55;;;20.70;;
35188;SDS011;21762;54.480;18.556;2023-11-19T06:35:08;35.20;;;20.40;;
35188;SDS011;21762;54.480;18.556;2023-11-19T06:37:39;37.90;;;20.70;;
35188;SDS011;21762;54.480;18.556;2023-11-19T06:40:08;38.50;;;20.03;;
35188;SDS011;21762;54.480;18.556;2023-11-19T06:42:39;38.28;;;21.20;;
35188;SDS011;21762;54.480;18.556;2023-11-19T06:45:08;35.67;;;21.38;;
35188;SDS011;21762;54.480;18.556;2023-11-19T06:47:37;39.20;;;21.80;;
35188;SDS011;21762;54.480;18.556;2023-11-19T06:50:06;37.90;;;21.17;;
35188;SDS011;21762;54.480;18.556;2023-11-19T06:52:36;36.60;;;20.92;;
35188;SDS011;21762;54.480;18.556;2023-11-19T06:55:07;45.65;;;23.00;;
35188;SDS011;21762;54.480;18.556;2023-11-19T06:57:36;35.40;;;21.17;;
35188;SDS011;21762;54.480;18.556;2023-11-19T07:00:06;38.05;;;22.10;;
35188;SDS011;21762;54.480;18.556;2023-11-19T07:02:35;34.80;;;20.63;;
35188;SDS011;21762;54.480;18.556;2023-11-19T07:05:04;41.08;;;22.05;;
35188;SDS011;21762;54.480;18.556;2023-11-19T07:07:35;37.42;;;21.67;;
35188;SDS011;21762;54.480;18.556;2023-11-19T07:10:04;43.10;;;23.15;;
35188;SDS011;21762;54.480;18.556;2023-11-19T07:12:37;37.13;;;21.75;;
35188;SDS011;21762;54.480;18.556;2023-11-19T07:15:05;38.35;;;22.48;;
35188;SDS011;21762;54.480;18.556;2023-11-19T07:17:34;39.28;;;21.35;;
35188;SDS011;21762;54.480;18.556;2023-11-19T07:20:04;39.42;;;22.08;;
35188;SDS011;21762;54.480;18.556;2023-11-19T07:22:33;39.30;;;23.52;;
35188;SDS011;21762;54.480;18.556;2023-11-19T07:25:02;36.95;;;21.67;;
35188;SDS011;21762;54.480;18.556;2023-11-19T07:27:31;37.83;;;22.48;;
35188;SDS011;21762;54.480;18.556;2023-11-19T07:30:01;37.08;;;21.15;;
35188;SDS011;21762;54.480;18.556;2023-11-19T07:32:30;38.33;;;22.83;;
35188;SDS011;21762;54.480;18.556;2023-11-19T07:34:58;36.22;;;21.88;;
35188;SDS011;21762;54.480;18.556;2023-11-19T07:37:27;37.95;;;21.98;;
35188;SDS011;21762;54.480;18.556;2023-11-19T07:39:56;39.63;;;21.30;;
35188;SDS011;21762;54.480;18.556;2023-11-19T07:42:25;34.80;;;22.33;;
35188;SDS011;21762;54.480;18.556;2023-11-19T07:44:54;36.28;;;20.92;;
35188;SDS011;21762;54.480;18.556;2023-11-19T07:47:25;35.92;;;20.98;;
35188;SDS011;21762;54.480;18.556;2023-11-19T07:52:24;38.70;;;20.60;;
35188;SDS011;21762;54.480;18.556;2023-11-19T07:54:53;37.65;;;21.02;;
35188;SDS011;21762;54.480;18.556;2023-11-19T07:57:22;37.30;;;21.17;;
35188;SDS011;21762;54.480;18.556;2023-11-19T07:59:51;34.58;;;20.90;;
35188;SDS011;21762;54.480;18.556;2023-11-19T08:02:20;36.25;;;20.52;;
35188;SDS011;21762;54.480;18.556;2023-11-19T08:04:51;32.38;;;20.05;;
35188;SDS011;21762;54.480;18.556;2023-11-19T08:07:22;32.10;;;18.90;;
35188;SDS011;21762;54.480;18.556;2023-11-19T08:09:50;35.67;;;19.67;;
35188;SDS011;21762;54.480;18.556;2023-11-19T08:12:19;32.92;;;18.50;;
35188;SDS011;21762;54.480;18.556;2023-11-19T08:14:48;33.50;;;18.75;;
35188;SDS011;21762;54.480;18.556;2023-11-19T08:17:17;33.45;;;19.10;;
35188;SDS011;21762;54.480;18.556;2023-11-19T08:19:46;34.50;;;19.95;;
35188;SDS011;21762;54.480;18.556;2023-11-19T08:22:16;32.25;;;18.77;;
35188;SDS011;21762;54.480;18.556;2023-11-19T08:24:45;30.85;;;18.65;;
35188;SDS011;21762;54.480;18.556;2023-11-19T08:27:13;33.45;;;18.38;;
35188;SDS011;21762;54.480;18.556;2023-11-19T08:29:42;27.95;;;16.85;;
35188;SDS011;21762;54.480;18.556;2023-11-19T08:32:11;33.13;;;18.23;;
35188;SDS011;21762;54.480;18.556;2023-11-19T08:34:39;27.67;;;16.85;;
35188;SDS011;21762;54.480;18.556;2023-11-19T08:37:08;30.90;;;17.23;;
35188;SDS011;21762;54.480;18.556;2023-11-19T08:39:39;30.08;;;17.33;;
35188;SDS011;21762;54.480;18.556;2023-11-19T08:42:08;31.60;;;17.15;;
35188;SDS011;21762;54.480;18.556;2023-11-19T08:44:37;26.17;;;16.02;;
35188;SDS011;21762;54.480;18.556;2023-11-19T08:47:06;29.85;;;17.05;;
35188;SDS011;21762;54.480;18.556;2023-11-19T08:49:35;31.52;;;16.13;;
35188;SDS011;21762;54.480;18.556;2023-11-19T08:52:04;27.48;;;16.45;;
35188;SDS011;21762;54.480;18.556;2023-11-19T08:54:34;25.67;;;16.15;;
35188;SDS011;21762;54.480;18.556;2023-11-19T08:57:04;28.25;;;16.52;;
35188;SDS011;21762;54.480;18.556;2023-11-19T08:59:35;31.55;;;16.65;;
35188;SDS011;21762;54.480;18.556;2023-11-19T09:02:05;29.35;;;16.70;;
35188;SDS011;21762;54.480;18.556;2023-11-19T09:04:35;28.33;;;16.55;;
35188;SDS011;21762;54.480;18.556;2023-11-19T09:07:04;27.90;;;16.58;;
35188;SDS011;21762;54.480;18.556;2023-11-19T09:09:32;27.42;;;15.77;;
35188;SDS011;21762;54.480;18.556;2023-11-19T09:12:02;26.85;;;16.25;;
35188;SDS011;21762;54.480;18.556;2023-11-19T09:14:33;28.08;;;16.25;;
35188;SDS011;21762;54.480;18.556;2023-11-19T09:17:02;26.20;;;15.95;;
35188;SDS011;21762;54.480;18.556;2023-11-19T09:19:32;26.90;;;16.02;;
35188;SDS011;21762;54.480;18.556;2023-11-19T09:22:03;28.38;;;16.10;;
35188;SDS011;21762;54.480;18.556;2023-11-19T09:24:32;23.67;;;15.18;;
35188;SDS011;21762;54.480;18.556;2023-11-19T09:27:00;25.20;;;15.63;;
35188;SDS011;21762;54.480;18.556;2023-11-19T09:29:33;33.50;;;15.80;;
35188;SDS011;21762;54.480;18.556;2023-11-19T09:32:02;25.02;;;15.68;;
35188;SDS011;21762;54.480;18.556;2023-11-19T09:34:31;25.98;;;13.63;;
35188;SDS011;21762;54.480;18.556;2023-11-19T09:37:00;27.33;;;14.95;;
35188;SDS011;21762;54.480;18.556;2023-11-19T09:39:29;24.60;;;14.48;;
35188;SDS011;21762;54.480;18.556;2023-11-19T09:41:58;24.92;;;14.10;;
35188;SDS011;21762;54.480;18.556;2023-11-19T09:44:27;23.35;;;14.32;;
35188;SDS011;21762;54.480;18.556;2023-11-19T09:46:58;26.20;;;15.32;;
35188;SDS011;21762;54.480;18.556;2023-11-19T09:49:27;25.05;;;15.50;;
35188;SDS011;21762;54.480;18.556;2023-11-19T09:51:59;23.77;;;14.50;;
35188;SDS011;21762;54.480;18.556;2023-11-19T09:54:28;24.02;;;14.95;;
35188;SDS011;21762;54.480;18.556;2023-11-19T09:56:57;25.70;;;15.15;;
35188;SDS011;21762;54.480;18.556;2023-11-19T09:59:30;23.48;;;14.93;;
35188;SDS011;21762;54.480;18.556;2023-11-19T10:02:00;27.80;;;16.10;;
35188;SDS011;21762;54.480;18.556;2023-11-19T10:04:31;26.95;;;15.70;;
35188;SDS011;21762;54.480;18.556;2023-11-19T10:07:01;30.63;;;17.45;;
35188;SDS011;21762;54.480;18.556;2023-11-19T10:09:30;30.70;;;16.98;;
35188;SDS011;21762;54.480;18.556;2023-11-19T10:11:59;26.42;;;16.50;;
35188;SDS011;21762;54.480;18.556;2023-11-19T10:14:28;30.00;;;17.80;;
35188;SDS011;21762;54.480;18.556;2023-11-19T10:19:31;28.08;;;17.23;;
35188;SDS011;21762;54.480;18.556;2023-11-19T10:22:02;29.20;;;17.35;;
35188;SDS011;21762;54.480;18.556;2023-11-19T10:27:01;31.25;;;18.77;;
35188;SDS011;21762;54.480;18.556;2023-11-19T10:29:30;31.73;;;18.05;;
35188;SDS011;21762;54.480;18.556;2023-11-19T10:31:59;30.27;;;19.23;;
35188;SDS011;21762;54.480;18.556;2023-11-19T10:34:30;31.40;;;19.65;;
35188;SDS011;21762;54.480;18.556;2023-11-19T10:36:58;27.35;;;17.40;;
35188;SDS011;21762;54.480;18.556;2023-11-19T10:39:31;33.53;;;20.00;;
35188;SDS011;21762;54.480;18.556;2023-11-19T10:42:20;34.80;;;20.02;;
35188;SDS011;21762;54.480;18.556;2023-11-19T10:44:49;30.20;;;18.80;;
35188;SDS011;21762;54.480;18.556;2023-11-19T10:47:18;30.65;;;18.42;;
35188;SDS011;21762;54.480;18.556;2023-11-19T10:50:05;30.70;;;19.27;;
35188;SDS011;21762;54.480;18.556;2023-11-19T10:52:34;35.95;;;19.17;;
35188;SDS011;21762;54.480;18.556;2023-11-19T10:55:03;33.17;;;20.00;;
35188;SDS011;21762;54.480;18.556;2023-11-19T11:00:04;37.58;;;20.85;;
35188;SDS011;21762;54.480;18.556;2023-11-19T11:02:40;35.63;;;20.45;;
35188;SDS011;21762;54.480;18.556;2023-11-19T11:05:11;36.23;;;21.13;;
35188;SDS011;21762;54.480;18.556;2023-11-19T11:07:41;35.08;;;20.35;;
35188;SDS011;21762;54.480;18.556;2023-11-19T11:10:11;36.05;;;20.48;;
35188;SDS011;21762;54.480;18.556;2023-11-19T11:12:40;37.35;;;20.35;;
35188;SDS011;21762;54.480;18.556;2023-11-19T11:15:10;34.65;;;21.48;;
35188;SDS011;21762;54.480;18.556;2023-11-19T11:17:40;37.60;;;21.30;;
35188;SDS011;21762;54.480;18.556;2023-11-19T11:20:12;37.10;;;20.77;;
35188;SDS011;21762;54.480;18.556;2023-11-19T11:22:51;42.10;;;22.60;;
35188;SDS011;21762;54.480;18.556;2023-11-19T11:25:32;46.65;;;23.05;;
35188;SDS011;21762;54.480;18.556;2023-11-19T11:28:18;41.10;;;23.40;;
35188;SDS011;21762;54.480;18.556;2023-11-19T11:31:01;42.38;;;23.20;;
35188;SDS011;21762;54.480;18.556;2023-11-19T11:33:40;46.22;;;25.00;;
35188;SDS011;21762;54.480;18.556;2023-11-19T11:36:30;47.72;;;23.67;;
35188;SDS011;21762;54.480;18.556;2023-11-19T11:39:00;46.63;;;25.03;;
35188;SDS011;21762;54.480;18.556;2023-11-19T11:41:34;47.55;;;26.33;;
35188;SDS011;21762;54.480;18.556;2023-11-19T11:44:03;51.45;;;26.40;;
35188;SDS011;21762;54.480;18.556;2023-11-19T11:49:24;48.22;;;25.48;;
35188;SDS011;21762;54.480;18.556;2023-11-19T11:51:59;61.08;;;29.33;;
35188;SDS011;21762;54.480;18.556;2023-11-19T11:54:29;52.95;;;26.65;;
35188;SDS011;21762;54.480;18.556;2023-11-19T11:57:01;55.88;;;27.90;;
35188;SDS011;21762;54.480;18.556;2023-11-19T11:59:37;56.28;;;27.90;;
35188;SDS011;21762;54.480;18.556;2023-11-19T12:02:12;54.00;;;27.50;;
35188;SDS011;21762;54.480;18.556;2023-11-19T12:04:41;59.55;;;29.25;;
35188;SDS011;21762;54.480;18.556;2023-11-19T12:07:13;49.67;;;26.30;;
35188;SDS011;21762;54.480;18.556;2023-11-19T12:09:45;56.17;;;29.98;;
35188;SDS011;21762;54.480;18.556;2023-11-19T12:12:19;60.45;;;27.23;;
35188;SDS011;21762;54.480;18.556;2023-11-19T12:15:05;50.63;;;26.42;;
35188;SDS011;21762;54.480;18.556;2023-11-19T12:17:43;52.22;;;27.92;;
35188;SDS011;21762;54.480;18.556;2023-11-19T12:20:16;49.97;;;27.20;;
35188;SDS011;21762;54.480;18.556;2023-11-19T12:23:02;48.83;;;25.58;;
35188;SDS011;21762;54.480;18.556;2023-11-19T12:25:34;54.65;;;26.85;;
35188;SDS011;21762;54.480;18.556;2023-11-19T12:28:03;58.03;;;28.05;;
35188;SDS011;21762;54.480;18.556;2023-11-19T12:30:34;56.05;;;28.55;;
35188;SDS011;21762;54.480;18.556;2023-11-19T12:33:07;54.13;;;28.15;;
35188;SDS011;21762;54.480;18.556;2023-11-19T12:35:38;66.00;;;30.38;;
35188;SDS011;21762;54.480;18.556;2023-11-19T12:38:17;60.83;;;30.27;;
35188;SDS011;21762;54.480;18.556;2023-11-19T12:40:47;53.60;;;26.65;;
35188;SDS011;21762;54.480;18.556;2023-11-19T12:43:21;63.22;;;31.30;;
35188;SDS011;21762;54.480;18.556;2023-11-19T12:45:50;58.70;;;30.30;;
35188;SDS011;21762;54.480;18.556;2023-11-19T12:48:19;68.18;;;32.35;;
35188;SDS011;21762;54.480;18.556;2023-11-19T12:50:51;70.43;;;32.95;;
35188;SDS011;21762;54.480;18.556;2023-11-19T12:53:22;61.10;;;29.67;;
35188;SDS011;21762;54.480;18.556;2023-11-19T12:55:51;64.07;;;30.65;;
35188;SDS011;21762;54.480;18.556;2023-11-19T12:58:28;67.95;;;32.67;;
35188;SDS011;21762;54.480;18.556;2023-11-19T13:01:01;63.97;;;30.95;;
35188;SDS011;21762;54.480;18.556;2023-11-19T13:03:30;66.65;;;32.25;;
35188;SDS011;21762;54.480;18.556;2023-11-19T13:06:03;71.00;;;32.97;;
35188;SDS011;21762;54.480;18.556;2023-11-19T13:08:39;71.07;;;34.47;;
35188;SDS011;21762;54.480;18.556;2023-11-19T13:11:08;73.72;;;35.13;;
35188;SDS011;21762;54.480;18.556;2023-11-19T13:13:53;75.43;;;35.03;;
35188;SDS011;21762;54.480;18.556;2023-11-19T13:16:22;75.65;;;34.33;;
35188;SDS011;21762;54.480;18.556;2023-11-19T13:18:51;73.30;;;34.05;;
35188;SDS011;21762;54.480;18.556;2023-11-19T13:21:20;68.32;;;32.85;;
35188;SDS011;21762;54.480;18.556;2023-11-19T13:23:50;74.80;;;33.03;;
35188;SDS011;21762;54.480;18.556;2023-11-19T13:26:19;84.88;;;36.42;;
35188;SDS011;21762;54.480;18.556;2023-11-19T13:28:47;69.75;;;32.92;;
35188;SDS011;21762;54.480;18.556;2023-11-19T13:31:16;76.97;;;33.65;;
35188;SDS011;21762;54.480;18.556;2023-11-19T13:33:45;71.68;;;33.58;;
35188;SDS011;21762;54.480;18.556;2023-11-19T13:36:14;76.53;;;34.08;;
35188;SDS011;21762;54.480;18.556;2023-11-19T13:38:43;66.18;;;33.65;;
35188;SDS011;21762;54.480;18.556;2023-11-19T13:41:13;70.18;;;33.55;;
35188;SDS011;21762;54.480;18.556;2023-11-19T13:43:42;71.30;;;34.95;;
35188;SDS011;21762;54.480;18.556;2023-11-19T13:46:11;70.57;;;33.60;;
35188;SDS011;21762;54.480;18.556;2023-11-19T13:48:40;71.53;;;33.63;;
35188;SDS011;21762;54.480;18.556;2023-11-19T13:51:09;67.28;;;32.38;;
35188;SDS011;21762;54.480;18.556;2023-11-19T13:53:38;67.40;;;32.10;;
35188;SDS011;21762;54.480;18.556;2023-11-19T13:56:09;61.08;;;30.83;;
35188;SDS011;21762;54.480;18.556;2023-11-19T13:58:39;66.88;;;31.90;;
35188;SDS011;21762;54.480;18.556;2023-11-19T14:01:08;65.55;;;31.27;;
35188;SDS011;21762;54.480;18.556;2023-11-19T14:03:37;65.22;;;31.65;;
35188;SDS011;21762;54.480;18.556;2023-11-19T14:06:06;63.55;;;32.10;;
35188;SDS011;21762;54.480;18.556;2023-11-19T14:08:36;63.53;;;29.73;;
35188;SDS011;21762;54.480;18.556;2023-11-19T14:11:05;67.22;;;30.95;;
35188;SDS011;21762;54.480;18.556;2023-11-19T14:13:33;66.05;;;31.52;;
35188;SDS011;21762;54.480;18.556;2023-11-19T14:16:04;60.10;;;29.92;;
35188;SDS011;21762;54.480;18.556;2023-11-19T14:18:35;63.45;;;29.40;;
35188;SDS011;21762;54.480;18.556;2023-11-19T14:21:05;58.58;;;29.80;;
35188;SDS011;21762;54.480;18.556;2023-11-19T14:23:34;68.57;;;31.02;;
35188;SDS011;21762;54.480;18.556;2023-11-19T14:26:03;66.78;;;31.25;;
35188;SDS011;21762;54.480;18.556;2023-11-19T14:28:33;68.80;;;32.08;;
35188;SDS011;21762;54.480;18.556;2023-11-19T14:31:01;64.88;;;31.08;;
35188;SDS011;21762;54.480;18.556;2023-11-19T14:33:32;64.30;;;31.10;;
35188;SDS011;21762;54.480;18.556;2023-11-19T14:36:02;63.47;;;30.58;;
35188;SDS011;21762;54.480;18.556;2023-11-19T14:38:33;63.88;;;28.70;;
35188;SDS011;21762;54.480;18.556;2023-11-19T14:41:01;64.32;;;29.95;;